Time;durP1;ratioP1;P1;durP2;ratioP2;P2;SDS_P1;SDS_P2;PMS_P1;PMS_P2;Temp;Humidity;BMP_temperature;BMP_pressure;BME280_temperature;BME280_humidity;BME280_pressure;Samples;Min_cycle;Max_cycle;Signal;HPM_P1;HPM_P2
2022/12/08 00:35:51;;;;;;;3.40;1.58;;;;;;;15.91;57.46;101059.75;6298226;22;20022;-84
2022/12/08 00:45:05;;;;;;;3.28;1.55;;;;;;;15.91;57.80;101059.75;6280699;22;20038;-81
2022/12/08 00:47:42;;;;;;;2.28;1.33;;;;;;;15.90;57.48;101057.19;6304041;22;20042;-83
2022/12/08 00:50:15;;;;;;;3.22;1.40;;;;;;;15.90;57.02;101054.59;6276034;22;19995;-83
2022/12/08 00:53:06;;;;;;;3.15;1.42;;;;;;;15.90;57.41;101049.41;6241015;23;20004;-82
2022/12/08 00:56:27;;;;;;;3.28;1.50;;;;;;;15.91;57.40;101048.53;6240426;23;20020;-82
2022/12/08 01:09:20;;;;;;;3.55;1.23;;;;;;;15.88;57.39;101044.19;6121650;23;20231;-82
2022/12/08 01:12:30;;;;;;;2.25;1.08;;;;;;;15.88;57.19;101035.56;6114813;23;20021;-82
2022/12/08 01:15:04;;;;;;;3.78;1.30;;;;;;;15.89;57.48;101045.06;6054023;23;20017;-82
2022/12/08 01:21:39;;;;;;;2.67;1.38;;;;;;;15.88;57.26;101045.94;6092832;23;20058;-82
2022/12/08 01:24:07;;;;;;;2.90;1.25;;;;;;;15.89;57.15;101045.06;6021921;23;20008;-82
2022/12/08 01:32:39;;;;;;;2.25;1.10;;;;;;;15.87;57.27;101026.88;6333722;22;20030;-83
2022/12/08 01:38:29;;;;;;;2.13;0.93;;;;;;;15.86;56.94;101013.94;6334359;22;20032;-82
2022/12/08 01:41:33;;;;;;;2.72;1.20;;;;;;;15.86;57.29;101025.16;6332722;22;20024;-83
2022/12/08 01:44:43;;;;;;;2.05;0.88;;;;;;;15.87;57.18;101023.44;6333133;22;20002;-83
2022/12/08 01:50:46;;;;;;;2.75;1.00;;;;;;;15.86;57.10;101011.34;6334159;22;20051;-82
2022/12/08 01:57:13;;;;;;;1.58;0.90;;;;;;;15.87;57.27;101018.25;6334777;22;20022;-83
2022/12/08 02:03:26;;;;;;;1.83;1.00;;;;;;;15.85;57.05;101013.03;6240874;23;20019;-83
2022/12/08 02:09:43;;;;;;;2.60;1.00;;;;;;;15.84;57.14;101019.97;6150875;23;20069;-83
2022/12/08 02:16:07;;;;;;;1.95;1.02;;;;;;;15.84;57.06;100998.34;6151808;23;20060;-83
2022/12/08 02:19:13;;;;;;;1.97;1.00;;;;;;;15.84;56.82;100987.97;6150657;23;20069;-83
2022/12/08 02:22:23;;;;;;;1.35;0.80;;;;;;;15.84;57.14;100996.63;6150885;23;20029;-82
2022/12/08 02:25:34;;;;;;;2.10;0.85;;;;;;;15.83;57.09;100991.44;6147054;23;20006;-83
2022/12/08 02:28:45;;;;;;;1.55;0.88;;;;;;;15.83;57.19;100981.94;6129183;23;19990;-83
2022/12/08 02:31:56;;;;;;;1.23;0.77;;;;;;;15.84;56.94;100982.78;6204932;23;19997;-83
2022/12/08 02:35:00;;;;;;;2.10;0.80;;;;;;;15.83;56.87;100971.53;6209348;23;20060;-83
2022/12/08 02:37:44;;;;;;;;;;;;;;;15.84;56.93;100975.00;6254710;22;20007;-82
2022/12/08 02:47:22;;;;;;;2.20;0.93;;;;;;;15.81;57.15;100973.28;6303657;22;20041;-83
2022/12/08 02:57:19;;;;;;;1.42;0.77;;;;;;;15.81;56.81;100968.09;6303127;22;20324;-83
2022/12/08 03:03:59;;;;;;;1.17;0.80;;;;;;;15.81;56.80;100957.69;6182097;23;20029;-83
2022/12/08 03:10:27;;;;;;;1.70;0.77;;;;;;;15.81;57.10;100938.69;6151628;23;20052;-83
2022/12/08 03:16:27;;;;;;;1.15;0.60;;;;;;;15.80;56.93;100935.19;6152568;23;20029;-82
2022/12/08 03:19:08;;;;;;;1.42;0.57;;;;;;;15.80;56.78;100929.16;6144291;23;20018;-82
2022/12/08 03:25:05;;;;;;;1.77;0.90;;;;;;;15.79;56.99;100912.72;6272203;22;20525;-83
2022/12/08 03:27:32;;;;;;;1.55;0.65;;;;;;;15.80;56.74;100906.66;6246220;22;20006;-82
2022/12/08 03:30:48;;;;;;;1.55;0.70;;;;;;;15.79;56.77;100901.50;6271628;23;20016;-82
2022/12/08 03:33:51;;;;;;;1.27;0.60;;;;;;;15.80;57.06;100905.78;6208252;23;20043;-82
2022/12/08 03:36:56;;;;;;;1.75;0.80;;;;;;;15.80;56.76;100914.44;6186405;23;20013;-83
2022/12/08 03:39:59;;;;;;;1.70;0.70;;;;;;;15.80;56.92;100919.63;6240775;23;20004;-83
2022/12/08 03:42:45;;;;;;;2.83;0.73;;;;;;;15.79;56.82;100902.34;6241080;23;20020;-82
2022/12/08 03:45:20;;;;;;;1.73;0.95;;;;;;;15.78;56.95;100904.94;6238436;23;19989;-82
2022/12/08 03:47:46;;;;;;;1.42;0.70;;;;;;;15.78;56.88;100907.53;6237274;23;20008;-82
2022/12/08 03:50:15;;;;;;;2.35;0.88;;;;;;;15.78;56.75;100921.34;6235198;23;20107;-82
2022/12/08 03:56:33;;;;;;;2.08;0.90;;;;;;;15.78;56.73;100904.94;6240525;23;20066;-82
2022/12/08 03:59:02;;;;;;;1.33;0.70;;;;;;;15.78;56.71;100904.94;6178191;23;20019;-81
2022/12/08 04:01:48;;;;;;;1.55;0.77;;;;;;;15.78;56.70;100910.97;6229561;23;20008;-82
2022/12/08 04:04:51;;;;;;;1.63;0.70;;;;;;;15.78;56.66;100905.78;6240235;23;20012;-82
2022/12/08 04:07:30;;;;;;;1.25;0.60;;;;;;;15.79;56.81;100915.31;6267627;23;19984;-82
2022/12/08 04:10:17;;;;;;;1.02;0.60;;;;;;;15.77;56.73;100917.06;6242446;23;20083;-82
2022/12/08 04:13:08;;;;;;;2.97;0.70;;;;;;;15.77;56.96;100914.44;6268161;23;20004;-82
2022/12/08 04:16:04;;;;;;;1.25;0.57;;;;;;;15.76;56.89;100907.53;6244884;23;20040;-82
2022/12/08 04:19:05;;;;;;;;;;;;;;;15.78;57.09;100923.94;6246362;23;19987;-82
2022/12/08 04:21:43;;;;;;;0.93;0.50;;;;;;;15.77;57.18;100906.66;6270512;23;19904;-82
2022/12/08 04:27:46;;;;;;;2.58;0.90;;;;;;;15.78;57.10;100920.50;6270600;22;20019;-82
2022/12/08 04:31:11;;;;;;;1.30;0.60;;;;;;;15.80;56.96;100906.66;6239422;23;20016;-83
2022/12/08 04:33:46;;;;;;;0.98;0.60;;;;;;;15.80;57.22;100893.69;6240075;23;20031;-82
2022/12/08 04:36:44;;;;;;;1.13;0.50;;;;;;;15.80;57.27;100893.69;6268505;23;19992;-83
2022/12/08 04:40:00;;;;;;;1.35;0.60;;;;;;;15.81;57.21;100886.78;6210587;23;20001;-82
2022/12/08 04:45:54;;;;;;;1.00;0.55;;;;;;;15.80;57.00;100872.91;6154802;23;20064;-82
2022/12/08 04:55:13;;;;;;;1.80;0.70;;;;;;;15.80;57.13;100879.84;6121588;23;20066;-82
2022/12/08 04:57:47;;;;;;;1.35;0.50;;;;;;;15.78;56.91;100871.19;6092056;23;20006;-83
2022/12/08 05:04:01;;;;;;;0.98;0.50;;;;;;;15.78;56.90;100866.88;6091941;23;20042;-82
2022/12/08 05:06:47;;;;;;;1.23;0.50;;;;;;;15.78;56.88;100868.59;6091687;23;19990;-83
2022/12/08 05:09:31;;;;;;;1.10;0.50;;;;;;;15.79;57.00;100875.53;6092566;23;20011;-83
2022/12/08 05:12:15;;;;;;;1.88;0.57;;;;;;;15.76;57.02;100883.31;6088173;23;19991;-82
2022/12/08 05:15:10;;;;;;;1.00;0.50;;;;;;;15.79;56.78;100891.09;6114443;23;20021;-83
2022/12/08 05:17:54;;;;;;;1.90;0.57;;;;;;;15.77;56.87;100882.47;6181173;23;20448;-82
2022/12/08 05:20:59;;;;;;;1.60;0.50;;;;;;;15.77;56.89;100877.28;6185760;23;20007;-84
2022/12/08 05:23:34;;;;;;;1.42;0.50;;;;;;;15.76;56.98;100876.38;6210648;23;20060;-82
2022/12/08 05:26:40;;;;;;;1.08;0.50;;;;;;;15.77;56.93;100885.06;6200884;23;20075;-81
2022/12/08 05:32:55;;;;;;;1.25;0.60;;;;;;;15.76;56.64;100876.38;6237873;23;20052;-82
2022/12/08 05:39:26;;;;;;;1.13;0.50;;;;;;;15.74;56.76;100862.56;6180488;23;20092;-83
2022/12/08 05:49:17;;;;;;;0.82;0.50;;;;;;;15.74;56.66;100857.38;6008794;24;20057;-83
2022/12/08 05:55:08;;;;;;;1.48;0.57;;;;;;;15.75;56.67;100860.84;5979612;23;20023;-82
2022/12/08 06:04:19;;;;;;;1.13;0.50;;;;;;;15.82;57.09;100852.16;5931496;24;20466;-79
2022/12/08 06:06:44;;;;;;;6.72;0.80;;;;;;;15.89;57.25;100846.09;5884285;24;20013;-77
2022/12/08 06:09:11;;;;;;;2.67;0.80;;;;;;;15.87;57.14;100846.97;5907266;24;20518;-78
2022/12/08 06:11:36;;;;;;;2.35;0.82;;;;;;;15.84;57.15;100842.66;5909733;24;20021;-78
2022/12/08 06:14:10;;;;;;;2.08;0.70;;;;;;;15.82;57.05;100839.19;5964513;24;20092;-80
2022/12/08 06:16:56;;;;;;;2.33;0.70;;;;;;;15.79;57.27;100840.06;5938874;24;20069;-80
2022/12/08 06:19:21;;;;;;;3.95;0.75;;;;;;;15.78;57.44;100838.31;5934931;24;20017;-80
2022/12/08 06:21:47;;;;;;;2.70;0.90;;;;;;;15.77;57.39;100847.00;5957398;24;20012;-81
2022/12/08 06:24:27;;;;;;;1.85;0.77;;;;;;;15.77;57.35;100852.19;5961744;24;20035;-81
2022/12/08 06:27:16;;;;;;;3.70;0.93;;;;;;;15.77;57.28;100852.19;6031478;23;20027;-80
2022/12/08 06:29:43;;;;;;;4.18;0.75;;;;;;;15.77;57.39;100847.00;6010770;23;20010;-81
2022/12/08 06:32:08;;;;;;;2.90;0.90;;;;;;;15.77;57.34;100847.00;6078627;23;20033;-80
2022/12/08 06:34:33;;;;;;;3.90;0.70;;;;;;;15.76;57.42;100839.19;6104020;23;20053;-79
2022/12/08 06:36:59;;;;;;;1.48;0.65;;;;;;;15.78;57.38;100842.66;6137130;23;20020;-81
2022/12/08 06:39:27;;;;;;;1.50;0.80;;;;;;;15.77;57.55;100841.81;6168218;22;20016;-78
2022/12/08 06:44:37;;;;;;;1.90;0.85;;;;;;;15.78;57.73;100847.84;6207838;23;20069;-79
2022/12/08 06:47:02;;;;;;;1.55;0.68;;;;;;;15.78;57.45;100837.47;6176435;23;20012;-80
2022/12/08 06:49:27;;;;;;;1.58;0.70;;;;;;;15.78;57.48;100848.72;6225424;23;20019;-79
2022/12/08 06:51:59;;;;;;;2.22;0.80;;;;;;;15.79;57.54;100852.19;6205407;23;20024;-81
2022/12/08 06:54:43;;;;;;;1.73;0.73;;;;;;;15.79;57.66;100855.63;6243006;22;19984;-85
2022/12/08 06:57:09;;;;;;;2.08;0.77;;;;;;;15.79;57.60;100859.97;6207692;23;20015;-79
2022/12/08 06:59:34;;;;;;;2.20;0.77;;;;;;;15.79;57.72;100866.03;6227120;23;20079;-78
2022/12/08 07:02:00;;;;;;;1.58;0.60;;;;;;;15.79;57.57;100868.63;6205764;23;20061;-79
2022/12/08 07:04:25;;;;;;;2.55;0.60;;;;;;;15.79;57.52;100866.03;6227394;23;20011;-79
2022/12/08 07:06:51;;;;;;;3.25;1.20;;;;;;;15.85;57.78;100867.72;6233132;23;20012;-79
2022/12/08 07:09:16;;;;;;;1.88;0.90;;;;;;;15.84;57.84;100871.19;6252065;23;20428;-78
2022/12/08 07:11:42;;;;;;;5.18;0.98;;;;;;;15.82;57.47;100872.94;6227297;23;20008;-78
2022/12/08 07:14:07;;;;;;;4.38;1.10;;;;;;;15.81;57.80;100873.81;6227315;23;20052;-78
2022/12/08 07:17:11;;;;;;;3.67;1.38;;;;;;;15.80;57.84;100872.91;6227208;23;20011;-85
2022/12/08 07:34:48;;;;;;;4.20;1.30;;;;;;;15.76;57.75;100865.16;6291292;22;20008;-88
2022/12/08 07:37:14;;;;;;;3.83;1.42;;;;;;;15.76;57.86;100876.38;6254463;22;20011;-88
2022/12/08 07:39:40;;;;;;;3.85;1.38;;;;;;;15.76;57.68;100891.09;6279240;22;20011;-88
2022/12/08 07:42:06;;;;;;;5.53;1.50;;;;;;;15.76;57.80;100873.78;6279041;22;20014;-87
2022/12/08 07:44:31;;;;;;;3.00;1.50;;;;;;;15.78;57.97;100868.59;6278971;22;20019;-87
2022/12/08 07:46:57;;;;;;;3.65;1.45;;;;;;;15.78;57.59;100860.81;6278595;22;19991;-88
2022/12/08 07:56:32;;;;;;;6.13;1.45;;;;;;;15.91;58.02;100864.25;6304451;22;20071;-84
2022/12/08 07:59:03;;;;;;;6.40;1.50;;;;;;;16.02;57.78;100871.13;6298454;22;19995;-84
2022/12/08 08:04:59;;;;;;;2.35;1.30;;;;;;;16.08;57.88;100854.69;6304809;22;20046;-87
2022/12/08 08:07:54;;;;;;;5.35;1.35;;;;;;;16.08;57.63;100859.91;6278281;22;19992;-86
2022/12/08 08:13:18;;;;;;;3.88;1.52;;;;;;;16.11;57.59;100865.06;6278749;22;20068;-81
2022/12/08 08:15:58;;;;;;;2.80;1.40;;;;;;;16.10;57.57;100862.50;6302086;22;20004;-87
2022/12/08 08:18:45;;;;;;;3.30;1.20;;;;;;;16.10;57.38;100858.16;6273174;22;19987;-87
2022/12/08 08:25:25;;;;;;;3.13;1.20;;;;;;;16.11;57.60;100866.81;6244021;22;20055;-87
2022/12/08 08:28:44;;;;;;;5.15;1.17;;;;;;;16.10;57.36;100863.34;6302623;22;20026;-87
2022/12/08 09:08:11;;;;;;;2.25;1.10;;;;;;;16.32;56.48;100881.47;6311816;22;20041;-87
2022/12/08 09:14:29;;;;;;;2.70;0.95;;;;;;;16.30;56.70;100876.25;6301846;22;20003;-87
2022/12/08 09:17:31;;;;;;;2.38;1.00;;;;;;;16.28;56.85;100880.59;6152819;23;20006;-87
2022/12/08 09:20:32;;;;;;;2.65;1.00;;;;;;;16.27;56.97;100886.66;6228316;23;20491;-87
2022/12/08 09:23:05;;;;;;;2.50;1.05;;;;;;;16.23;56.72;100882.34;6206393;23;20100;-87
2022/12/08 09:25:52;;;;;;;2.47;1.00;;;;;;;16.24;56.95;100904.84;6150425;23;20010;-87
2022/12/08 09:28:29;;;;;;;3.60;0.90;;;;;;;16.22;56.65;100902.28;6125710;23;20038;-87
2022/12/08 09:40:36;;;;;;;2.03;0.82;;;;;;;16.22;56.76;100876.31;6161194;23;20024;-86
2022/12/08 09:46:29;;;;;;;2.42;0.80;;;;;;;16.22;56.79;100852.94;6208684;23;20059;-79
2022/12/08 09:48:57;;;;;;;2.17;0.77;;;;;;;16.24;56.74;100865.88;6162988;23;20047;-79
2022/12/08 09:51:26;;;;;;;2.10;1.00;;;;;;;16.25;56.66;100863.28;6189822;23;20013;-79
2022/12/08 09:53:59;;;;;;;2.00;1.00;;;;;;;16.25;56.59;100865.03;6197673;23;20005;-80
2022/12/08 09:56:29;;;;;;;2.63;0.95;;;;;;;16.27;56.68;100865.91;6212328;22;20006;-79
2022/12/08 09:59:03;;;;;;;2.30;0.90;;;;;;;16.27;56.62;100862.44;6261140;22;20060;-80
2022/12/08 10:01:31;;;;;;;2.90;0.80;;;;;;;16.28;56.70;100865.00;6310659;22;20028;-79
2022/12/08 10:03:57;;;;;;;5.25;0.82;;;;;;;16.30;56.72;100865.88;6310833;22;20350;-79
2022/12/08 10:06:28;;;;;;;2.50;0.88;;;;;;;16.30;56.71;100860.69;6282196;22;20011;-79
2022/12/08 10:09:09;;;;;;;2.88;0.88;;;;;;;16.30;56.49;100855.50;6283051;22;20011;-79
2022/12/08 10:11:56;;;;;;;3.03;0.90;;;;;;;16.30;56.63;100860.69;6283796;22;20007;-79
2022/12/08 10:14:43;;;;;;;1.58;0.68;;;;;;;16.31;56.52;100858.94;6289622;22;20007;-79
2022/12/08 10:17:25;;;;;;;1.92;0.80;;;;;;;16.32;56.69;100853.75;6291229;22;19999;-80
2022/12/08 10:19:58;;;;;;;2.05;0.73;;;;;;;16.32;56.66;100847.69;6316226;22;20007;-79
2022/12/08 10:22:29;;;;;;;1.85;0.95;;;;;;;16.30;56.55;100842.50;6317242;22;20003;-80
2022/12/08 10:25:19;;;;;;;2.55;0.77;;;;;;;16.32;56.15;100845.09;6285684;22;20057;-79
2022/12/08 10:27:50;;;;;;;2.20;0.90;;;;;;;16.33;56.24;100841.63;6285162;22;20010;-79
2022/12/08 10:30:20;;;;;;;1.23;0.80;;;;;;;16.32;56.43;100837.31;6285268;22;20062;-79
2022/12/08 10:32:52;;;;;;;3.38;0.90;;;;;;;16.34;56.49;100832.97;6283674;22;20018;-79
2022/12/08 10:35:20;;;;;;;3.50;1.00;;;;;;;16.34;56.37;100836.44;6284496;22;19999;-80
2022/12/08 10:37:56;;;;;;;1.25;0.70;;;;;;;16.38;56.29;100832.94;6283527;22;20048;-79
2022/12/08 10:40:22;;;;;;;1.30;0.70;;;;;;;16.43;56.21;100825.13;6283313;22;20064;-79
2022/12/08 10:42:51;;;;;;;1.08;0.68;;;;;;;16.46;56.03;100819.91;6283272;22;20424;-79
2022/12/08 10:45:41;;;;;;;1.50;0.75;;;;;;;16.49;55.89;100819.91;6284291;22;19996;-79
2022/12/08 10:48:50;;;;;;;1.98;0.75;;;;;;;16.54;56.16;100809.50;6284696;22;20022;-79
2022/12/08 10:51:26;;;;;;;1.50;0.77;;;;;;;16.55;55.59;100804.31;6212910;22;20016;-79
2022/12/08 10:53:52;;;;;;;2.05;0.77;;;;;;;16.56;56.16;100799.97;6310328;22;19995;-79
2022/12/08 10:56:17;;;;;;;1.88;0.70;;;;;;;16.57;56.12;100804.28;6282676;22;20014;-79
2022/12/08 10:58:45;;;;;;;1.13;0.70;;;;;;;16.57;55.96;100802.56;6282892;22;20014;-79
2022/12/08 11:01:26;;;;;;;1.80;0.80;;;;;;;16.56;55.91;100799.97;6284419;22;20399;-79
2022/12/08 11:04:00;;;;;;;1.65;0.80;;;;;;;16.52;55.93;100796.50;6286423;22;20030;-79
2022/12/08 11:06:27;;;;;;;2.47;0.80;;;;;;;16.54;56.02;100794.75;6285140;22;20042;-79
2022/12/08 11:09:02;;;;;;;2.22;0.80;;;;;;;16.52;56.07;100788.72;6283980;22;20440;-80
2022/12/08 11:11:44;;;;;;;1.80;0.88;;;;;;;16.51;56.28;100789.59;6284605;22;20011;-80
2022/12/08 11:14:21;;;;;;;1.60;0.90;;;;;;;16.52;56.09;100790.47;6284089;22;20038;-79
2022/12/08 11:16:48;;;;;;;1.90;0.90;;;;;;;16.49;55.83;100788.75;6259637;22;20014;-79
2022/12/08 11:19:16;;;;;;;2.05;1.13;;;;;;;16.49;56.04;100783.56;6284786;22;20008;-80
2022/12/08 11:21:42;;;;;;;2.38;1.00;;;;;;;16.49;56.30;100782.69;6314978;22;19999;-78
2022/12/08 11:24:13;;;;;;;2.20;1.20;;;;;;;16.48;56.22;100781.81;6315792;22;20007;-79
2022/12/08 11:26:48;;;;;;;3.47;1.20;;;;;;;16.49;55.77;100785.28;6286857;22;20032;-81
2022/12/08 11:29:13;;;;;;;1.90;1.10;;;;;;;16.49;55.99;100783.56;6323373;22;20009;-81
2022/12/08 11:31:45;;;;;;;2.40;1.20;;;;;;;16.48;56.32;100774.00;6290282;22;20090;-80
2022/12/08 11:34:18;;;;;;;3.63;1.02;;;;;;;16.50;56.36;100779.22;6291876;22;20003;-81
2022/12/08 11:36:45;;;;;;;3.03;1.15;;;;;;;16.50;56.36;100779.22;6291852;22;20029;-80
2022/12/08 11:39:22;;;;;;;2.15;0.98;;;;;;;16.49;56.23;100775.75;6292470;22;20003;-80
2022/12/08 11:41:51;;;;;;;2.75;1.33;;;;;;;16.50;56.33;100777.47;6293032;22;20003;-80
2022/12/08 11:44:43;;;;;;;2.47;1.58;;;;;;;16.51;56.16;100767.97;6292639;22;20003;-80
2022/12/08 11:47:33;;;;;;;4.25;1.20;;;;;;;16.50;56.37;100766.22;6293029;22;20007;-80
2022/12/08 11:50:16;;;;;;;2.72;1.40;;;;;;;16.49;56.44;100767.09;6316780;22;20003;-80
2022/12/08 11:52:48;;;;;;;4.07;1.30;;;;;;;16.49;56.23;100765.38;6265772;22;20014;-80
2022/12/08 11:55:42;;;;;;;3.35;1.40;;;;;;;16.50;56.12;100764.47;6314309;22;20049;-80
2022/12/08 11:58:19;;;;;;;1.92;1.13;;;;;;;16.49;56.28;100752.38;6316789;22;20045;-80
2022/12/08 12:00:44;;;;;;;2.38;1.20;;;;;;;16.52;56.43;100749.75;6288712;22;20003;-80
2022/12/08 12:03:17;;;;;;;2.58;1.40;;;;;;;16.55;56.26;100754.06;6263246;22;20483;-80
2022/12/08 12:05:59;;;;;;;2.42;1.20;;;;;;;16.55;56.40;100749.75;6288612;22;20006;-80
2022/12/08 12:08:44;;;;;;;2.03;1.27;;;;;;;16.58;56.27;100751.47;6280993;22;20066;-80
2022/12/08 12:14:45;;;;;;;2.30;1.20;;;;;;;16.54;55.98;100741.97;6283126;22;20011;-80
2022/12/08 12:17:48;;;;;;;1.70;1.08;;;;;;;16.54;56.24;100741.97;6284293;22;20344;-81
2022/12/08 12:20:41;;;;;;;2.75;1.20;;;;;;;16.53;56.24;100742.84;6285018;22;20004;-80
2022/12/08 12:23:19;;;;;;;2.00;1.20;;;;;;;16.51;56.34;100731.59;6282815;22;20038;-80
2022/12/08 12:25:54;;;;;;;2.35;1.20;;;;;;;16.52;56.05;100736.75;6280679;22;20007;-80
2022/12/08 12:28:20;;;;;;;2.78;1.05;;;;;;;16.49;56.35;100730.75;6285004;22;20000;-80
2022/12/08 12:31:04;;;;;;;2.63;1.27;;;;;;;16.47;56.33;100737.69;6232047;22;20328;-79
2022/12/08 12:33:30;;;;;;;1.58;0.93;;;;;;;16.46;56.25;100744.59;6282611;22;20328;-79
2022/12/08 12:36:35;;;;;;;2.88;1.25;;;;;;;16.45;56.22;100754.13;6286428;22;19988;-88
2022/12/08 14:21:41;;;;;;;2.95;1.05;;;;;;;16.39;55.83;100693.56;6269074;22;20024;-87
2022/12/08 14:24:19;;;;;;;2.80;0.93;;;;;;;16.38;55.64;100684.06;6222528;23;20080;-87
2022/12/08 14:26:56;;;;;;;2.03;0.88;;;;;;;16.40;55.67;100687.50;6287011;22;20006;-87
2022/12/08 14:30:09;;;;;;;2.13;1.10;;;;;;;16.39;55.83;100690.97;6304373;22;20019;-87
2022/12/08 14:37:09;;;;;;;1.98;0.90;;;;;;;16.37;55.68;100690.97;6300525;22;20046;-87
2022/12/08 14:53:39;;;;;;;2.50;1.20;;;;;;;16.36;55.61;100683.22;6299438;22;20026;-87
2022/12/08 15:02:57;;;;;;;1.27;0.82;;;;;;;16.33;55.47;100691.00;6303035;22;20079;-87
2022/12/08 15:09:36;;;;;;;1.92;0.90;;;;;;;16.34;55.43;100710.91;6241551;23;20088;-87
2022/12/08 15:26:20;;;;;;;1.30;0.70;;;;;;;16.32;55.67;100697.09;6162265;23;20077;-88
2022/12/08 15:29:16;;;;;;;2.45;0.80;;;;;;;16.31;55.71;100684.94;6210094;23;20062;-87
2022/12/08 16:23:55;;;;;;;1.40;0.80;;;;;;;16.28;55.39;100682.41;6259371;22;20008;-90
2022/12/08 17:40:54;;;;;;;3.28;2.88;;;;;;;16.07;55.89;100694.66;6254613;22;20030;-85
2022/12/08 17:57:24;;;;;;;6.70;2.58;;;;;;;16.03;56.13;100698.13;6236245;23;20020;-87
2022/12/08 18:02:52;;;;;;;7.65;3.70;;;;;;;16.00;56.21;100706.78;6225917;22;20075;-86
2022/12/08 18:05:21;;;;;;;6.70;4.40;;;;;;;16.00;56.10;100708.50;6278699;22;20008;-87
2022/12/08 18:07:46;;;;;;;7.88;4.85;;;;;;;15.99;56.07;100712.84;6252274;22;20390;-79
2022/12/08 18:10:12;;;;;;;8.88;4.82;;;;;;;15.99;56.08;100714.56;6226505;22;20000;-79
2022/12/08 18:12:37;;;;;;;8.30;5.30;;;;;;;15.99;56.08;100714.56;6201448;22;20004;-78
2022/12/08 18:15:05;;;;;;;10.43;5.43;;;;;;;15.99;56.18;100718.03;6227094;22;20011;-78
2022/12/08 18:17:30;;;;;;;9.20;5.50;;;;;;;15.98;56.09;100721.50;6251535;22;20058;-79
2022/12/08 18:19:56;;;;;;;8.75;5.68;;;;;;;15.97;56.42;100722.38;6200345;22;19995;-79
2022/12/08 18:22:21;;;;;;;10.85;5.95;;;;;;;15.96;56.35;100718.06;6261842;22;19984;-88
2022/12/08 18:27:22;;;;;;;13.25;5.65;;;;;;;15.98;56.04;100725.81;6257604;22;20019;-83
2022/12/08 18:41:38;;;;;;;10.57;5.88;;;;;;;15.99;56.35;100714.56;6312522;22;20030;-85
2022/12/08 18:44:03;;;;;;;9.85;5.80;;;;;;;15.98;56.46;100711.13;6309643;22;20448;-86
2022/12/08 18:46:29;;;;;;;9.68;5.70;;;;;;;15.99;56.46;100712.84;6309362;22;20003;-85
2022/12/08 18:48:55;;;;;;;13.70;5.97;;;;;;;15.98;56.40;100720.63;6307949;22;20003;-83
2022/12/08 18:51:23;;;;;;;9.50;5.60;;;;;;;15.97;56.61;100724.97;6309501;22;20007;-86
2022/12/08 18:53:49;;;;;;;10.13;5.63;;;;;;;15.96;56.46;100723.25;6309629;22;19995;-85
2022/12/08 18:56:34;;;;;;;10.82;5.53;;;;;;;15.97;56.44;100732.75;6309667;22;19988;-84
2022/12/08 18:59:03;;;;;;;10.02;6.05;;;;;;;15.96;56.54;100730.16;6309278;22;20026;-85
2022/12/08 19:01:29;;;;;;;9.63;5.68;;;;;;;15.96;56.51;100730.16;6307355;22;19975;-84
2022/12/08 19:03:56;;;;;;;11.70;6.60;;;;;;;15.94;56.78;100735.38;6300631;22;20007;-85
2022/12/08 19:06:22;;;;;;;8.48;5.30;;;;;;;15.94;56.61;100735.38;6309356;22;20042;-86
2022/12/08 19:08:47;;;;;;;8.52;5.13;;;;;;;15.94;56.71;100731.88;6309434;22;19995;-86
2022/12/08 19:11:22;;;;;;;8.27;5.38;;;;;;;15.93;56.71;100724.97;6309113;22;20011;-84
2022/12/08 19:13:48;;;;;;;9.73;5.20;;;;;;;15.93;56.45;100735.38;6308918;22;20009;-85
2022/12/08 19:16:14;;;;;;;8.38;5.00;;;;;;;15.92;56.51;100739.69;6335870;22;19984;-85
2022/12/08 19:18:40;;;;;;;8.68;5.15;;;;;;;15.92;56.70;100739.69;6308804;22;19983;-85
2022/12/08 19:21:07;;;;;;;10.30;5.10;;;;;;;15.91;56.64;100740.56;6308424;22;20018;-85
2022/12/08 19:23:33;;;;;;;8.73;5.10;;;;;;;15.91;56.53;100737.09;6308642;22;19984;-85
2022/12/08 19:25:59;;;;;;;9.55;5.10;;;;;;;15.91;56.50;100737.09;6335451;22;19987;-87
2022/12/08 19:28:25;;;;;;;8.63;4.63;;;;;;;15.88;56.74;100737.13;6308776;22;20037;-85
2022/12/08 19:30:50;;;;;;;9.88;5.25;;;;;;;15.88;56.53;100739.72;6309146;22;19999;-86
2022/12/08 19:33:16;;;;;;;7.50;4.93;;;;;;;15.88;56.60;100747.50;6290212;22;20012;-85
2022/12/08 19:44:51;;;;;;;8.38;4.70;;;;;;;15.87;56.56;100750.94;6320585;22;20022;-84
2022/12/08 19:46:16;;;;;;;7.45;4.45;;;;;;;15.87;56.51;100746.63;6331148;22;20058;-85
2022/12/08 19:48:42;;;;;;;7.13;4.53;;;;;;;15.87;56.46;100748.34;6311168;22;20025;-84
2022/12/08 19:51:08;;;;;;;5.85;4.25;;;;;;;15.86;56.44;100744.06;6337371;22;19991;-84
2022/12/08 19:53:34;;;;;;;6.38;4.28;;;;;;;15.86;56.67;100752.69;6310701;22;19993;-84
2022/12/08 19:56:00;;;;;;;6.70;4.10;;;;;;;15.86;56.59;100751.84;6310769;22;20003;-85
2022/12/08 19:58:25;;;;;;;7.90;4.55;;;;;;;15.86;56.20;100746.66;6311261;22;19996;-85
2022/12/08 20:00:51;;;;;;;7.55;4.20;;;;;;;15.84;56.42;100755.28;6337546;22;20007;-84
2022/12/08 20:03:19;;;;;;;6.32;4.15;;;;;;;15.83;56.34;100750.97;6310642;22;20066;-85
2022/12/08 20:05:47;;;;;;;6.40;4.05;;;;;;;15.85;56.47;100756.13;6310370;22;19999;-85
2022/12/08 20:10:48;;;;;;;6.90;3.50;;;;;;;15.83;56.45;100757.91;6294409;22;20006;-86
2022/12/08 20:20:59;;;;;;;6.05;3.60;;;;;;;15.84;56.54;100781.22;6274379;22;20053;-86
2022/12/08 20:26:15;;;;;;;5.93;3.83;;;;;;;15.82;56.45;100784.72;6304348;22;20096;-86
2022/12/08 20:37:05;;;;;;;6.57;3.55;;;;;;;15.82;56.36;100784.72;6332165;22;20055;-87
2022/12/08 20:39:51;;;;;;;;;;;;;;;15.82;56.23;100795.94;6267982;22;20044;-86
2022/12/08 20:42:24;;;;;;;5.40;3.50;;;;;;;15.81;56.28;100793.38;6337226;22;19915;-87
2022/12/08 20:47:25;;;;;;;4.75;3.17;;;;;;;15.80;56.36;100783.84;6282555;22;20023;-86
2022/12/08 20:49:55;;;;;;;5.78;3.42;;;;;;;15.81;56.39;100783.00;6309100;22;20011;-85
2022/12/08 20:52:26;;;;;;;6.35;3.25;;;;;;;15.81;56.50;100783.00;6258445;22;20011;-86
2022/12/08 20:55:12;;;;;;;6.05;3.38;;;;;;;15.80;56.41;100787.28;6308511;22;19998;-88
2022/12/08 20:57:37;;;;;;;5.05;3.22;;;;;;;15.82;56.49;100790.75;6286782;22;20003;-87
2022/12/08 21:00:05;;;;;;;4.38;3.20;;;;;;;15.83;56.53;100789.91;6283549;22;20033;-88
2022/12/08 21:02:30;;;;;;;5.00;3.35;;;;;;;15.83;56.51;100794.22;6309045;22;20026;-87
2022/12/08 21:04:56;;;;;;;5.30;3.25;;;;;;;15.82;56.29;100793.34;6308378;22;20007;-89
2022/12/08 21:07:22;;;;;;;4.40;3.17;;;;;;;15.82;56.48;100803.72;6308829;22;19995;-86
2022/12/08 21:09:48;;;;;;;4.50;3.10;;;;;;;15.84;56.40;100807.19;6308672;22;20059;-86
2022/12/08 21:17:24;;;;;;;4.78;3.22;;;;;;;15.82;56.27;100792.50;6297411;22;20026;-85
2022/12/08 21:19:49;;;;;;;4.20;2.95;;;;;;;15.82;56.39;100797.69;6308727;22;19988;-86
2022/12/08 21:22:16;;;;;;;7.72;3.17;;;;;;;15.82;56.35;100805.47;6307469;22;19994;-86
2022/12/08 21:24:41;;;;;;;4.40;2.83;;;;;;;15.80;56.38;100800.28;6307648;22;19999;-88
2022/12/08 21:27:07;;;;;;;3.90;2.63;;;;;;;15.82;56.27;100802.88;6308899;22;19997;-85
2022/12/08 21:29:33;;;;;;;4.07;3.10;;;;;;;15.81;56.28;100796.81;6308612;22;19999;-87
2022/12/08 21:37:09;;;;;;;4.00;2.88;;;;;;;15.82;56.17;100808.91;6273352;22;20007;-87
2022/12/08 21:39:36;;;;;;;4.78;2.88;;;;;;;15.80;56.48;100800.28;6305695;22;19999;-87
2022/12/08 21:44:50;;;;;;;4.35;2.90;;;;;;;15.79;56.46;100803.75;6244051;22;20053;-87
2022/12/08 21:47:16;;;;;;;5.88;2.83;;;;;;;15.80;56.46;100814.97;6251375;22;20027;-86
2022/12/08 21:49:42;;;;;;;4.22;2.78;;;;;;;15.79;56.28;100808.94;6279430;22;20011;-87
2022/12/08 21:52:07;;;;;;;5.53;2.97;;;;;;;15.79;56.08;100816.72;6278729;22;20015;-85
2022/12/08 21:54:33;;;;;;;3.60;3.08;;;;;;;15.79;56.33;100808.94;6272032;22;20008;-86
2022/12/08 22:04:46;;;;;;;4.65;3.00;;;;;;;15.79;56.30;100815.88;6270275;22;20026;-86
2022/12/08 22:14:12;;;;;;;4.15;2.65;;;;;;;15.78;56.12;100814.13;6250268;22;20772;-85
2022/12/08 22:28:50;;;;;;;6.93;3.95;;;;;;;15.77;56.17;100821.03;6275821;22;20023;-81
2022/12/08 22:31:19;;;;;;;6.93;4.15;;;;;;;15.77;56.14;100826.22;6296934;22;20318;-82
2022/12/08 22:33:46;;;;;;;8.77;4.65;;;;;;;15.77;56.14;100826.22;6298828;22;20022;-84